Time;durP1;ratioP1;P1;durP2;ratioP2;P2;SDS_P1;SDS_P2;PMS_P1;PMS_P2;Temp;Humidity;BMP_temperature;BMP_pressure;BME280_temperature;BME280_humidity;BME280_pressure;Samples;Min_cycle;Max_cycle;Signal;HPM_P1;HPM_P2
2022/04/25 00:00:50;;;;;;;5.90;2.33;;;;;;;;;;4970253;28;20058;-62
2022/04/25 00:03:17;;;;;;;5.28;1.85;;;;;;;;;;4969407;28;20322;-61
2022/04/25 00:05:46;;;;;;;6.40;2.15;;;;;;;;;;4964622;28;20139;-61
2022/04/25 00:08:13;;;;;;;5.93;1.67;;;;;;;;;;4969488;28;20059;-65
2022/04/25 00:10:39;;;;;;;5.25;2.08;;;;;;;;;;4963842;28;20069;-60
2022/04/25 00:13:07;;;;;;;6.07;2.15;;;;;;;;;;4971559;28;20051;-61
2022/04/25 00:15:35;;;;;;;3.83;1.80;;;;;;;;;;4964576;28;20054;-60
2022/04/25 00:18:02;;;;;;;4.88;2.05;;;;;;;;;;4990138;28;20065;-60
2022/04/25 00:20:28;;;;;;;4.55;1.95;;;;;;;;;;4960943;28;20067;-61
2022/04/25 00:22:55;;;;;;;7.72;2.15;;;;;;;;;;4950467;28;20576;-60
2022/04/25 00:25:22;;;;;;;4.82;1.98;;;;;;;;;;4946144;28;20106;-60
2022/04/25 00:27:48;;;;;;;7.40;2.67;;;;;;;;;;4950915;28;20047;-60
2022/04/25 00:30:15;;;;;;;6.80;2.25;;;;;;;;;;4951080;28;20086;-61
2022/04/25 00:32:43;;;;;;;5.72;2.13;;;;;;;;;;4969620;28;20105;-62
2022/04/25 00:35:10;;;;;;;5.72;1.88;;;;;;;;;;4960785;28;20079;-60
2022/04/25 00:37:36;;;;;;;5.65;2.33;;;;;;;;;;4950973;28;20055;-61
2022/04/25 00:40:03;;;;;;;4.95;2.08;;;;;;;;;;4944257;28;20055;-60
2022/04/25 00:42:31;;;;;;;5.45;2.42;;;;;;;;;;4950494;28;20055;-60
2022/04/25 00:44:59;;;;;;;8.55;2.17;;;;;;;;;;4951426;28;20055;-60
2022/04/25 00:47:25;;;;;;;5.18;1.98;;;;;;;;;;4945530;28;20057;-60
2022/04/25 00:49:53;;;;;;;4.15;1.88;;;;;;;;;;4951363;28;20051;-61
2022/04/25 00:52:22;;;;;;;5.50;2.25;;;;;;;;;;4961584;28;20063;-60
2022/04/25 00:54:49;;;;;;;5.18;2.28;;;;;;;;;;4970972;28;20061;-60
2022/04/25 00:57:16;;;;;;;5.68;2.35;;;;;;;;;;4963623;28;20078;-60
2022/04/25 00:59:44;;;;;;;6.20;2.47;;;;;;;;;;4969284;28;20054;-61
2022/04/25 01:02:11;;;;;;;13.00;2.78;;;;;;;;;;4951561;28;20074;-62
2022/04/25 01:04:38;;;;;;;7.00;3.08;;;;;;;;;;4950520;28;20105;-60
2022/04/25 01:07:06;;;;;;;5.97;2.35;;;;;;;;;;4953693;28;20106;-60
2022/04/25 01:09:33;;;;;;;5.75;2.58;;;;;;;;;;4969913;28;20055;-61
2022/04/25 01:11:59;;;;;;;6.38;2.72;;;;;;;;;;4956568;28;20055;-61
2022/04/25 01:14:26;;;;;;;7.05;2.08;;;;;;;;;;4944524;28;20046;-60
2022/04/25 01:16:53;;;;;;;5.47;2.17;;;;;;;;;;4945857;28;20360;-60
2022/04/25 01:19:20;;;;;;;5.22;2.20;;;;;;;;;;4951573;28;20097;-60
2022/04/25 01:21:50;;;;;;;7.05;2.38;;;;;;;;;;4945648;28;20509;-63
2022/04/25 01:27:17;;;;;;;7.65;2.65;;;;;;;;;;4944611;28;20087;-60
2022/04/25 01:29:44;;;;;;;5.10;2.05;;;;;;;;;;4949379;28;20062;-61
2022/04/25 01:32:11;;;;;;;9.38;3.28;;;;;;;;;;4945427;28;20144;-60
2022/04/25 01:34:38;;;;;;;4.80;2.55;;;;;;;;;;4951253;28;20059;-61
2022/04/25 01:37:06;;;;;;;5.45;2.25;;;;;;;;;;4948741;28;20054;-60
2022/04/25 01:39:34;;;;;;;7.18;2.60;;;;;;;;;;4966283;28;20054;-61
2022/04/25 01:42:01;;;;;;;;;;;;;;;;;;4968671;28;20050;-60
2022/04/25 01:44:27;;;;;;;5.35;2.35;;;;;;;;;;4975866;28;19959;-60
2022/04/25 01:46:54;;;;;;;7.30;2.30;;;;;;;;;;4967877;28;20061;-60
2022/04/25 01:49:20;;;;;;;5.40;2.35;;;;;;;;;;4963199;28;20050;-60
2022/04/25 01:51:47;;;;;;;7.10;2.90;;;;;;;;;;4968195;28;20195;-63
2022/04/25 01:54:15;;;;;;;5.00;2.30;;;;;;;;;;4962750;28;20082;-61
2022/04/25 01:56:43;;;;;;;7.63;3.00;;;;;;;;;;4968755;28;20066;-60
2022/04/25 01:59:10;;;;;;;5.25;2.22;;;;;;;;;;4945760;28;20059;-60
2022/04/25 02:01:36;;;;;;;6.45;2.30;;;;;;;;;;4948285;28;20057;-60
2022/04/25 02:04:03;;;;;;;6.20;3.15;;;;;;;;;;4951393;28;20058;-59
2022/04/25 02:06:30;;;;;;;9.63;3.35;;;;;;;;;;4968518;28;20051;-60
2022/04/25 02:08:57;;;;;;;5.03;2.35;;;;;;;;;;4962210;28;20054;-60
2022/04/25 02:11:24;;;;;;;9.20;3.05;;;;;;;;;;4952327;28;20137;-60
2022/04/25 02:13:53;;;;;;;7.10;3.05;;;;;;;;;;4961133;28;21203;-59
2022/04/25 02:16:20;;;;;;;8.13;3.13;;;;;;;;;;4949270;28;20059;-60
2022/04/25 02:18:46;;;;;;;11.93;3.58;;;;;;;;;;4944598;28;20055;-60
2022/04/25 02:21:13;;;;;;;7.78;2.75;;;;;;;;;;4947980;28;20054;-60
2022/04/25 02:23:40;;;;;;;6.68;3.20;;;;;;;;;;4949106;28;20063;-60
2022/04/25 02:26:07;;;;;;;7.32;2.88;;;;;;;;;;4961581;28;20059;-61
2022/04/25 02:28:35;;;;;;;5.93;2.67;;;;;;;;;;4969721;28;20055;-59
2022/04/25 02:31:04;;;;;;;8.23;3.30;;;;;;;;;;4949280;28;20126;-60
2022/04/25 02:33:31;;;;;;;9.05;3.30;;;;;;;;;;4949251;28;20086;-60
2022/04/25 02:35:58;;;;;;;6.85;2.95;;;;;;;;;;4956515;28;20129;-60
2022/04/25 02:38:25;;;;;;;12.57;2.85;;;;;;;;;;4967521;28;20063;-59
2022/04/25 02:41:04;;;;;;;6.40;2.63;;;;;;;;;;4952392;28;20047;-59
2022/04/25 02:43:33;;;;;;;5.65;2.60;;;;;;;;;;4960459;28;20066;-59
2022/04/25 02:45:59;;;;;;;4.65;2.15;;;;;;;;;;4962157;28;20125;-59
2022/04/25 02:48:27;;;;;;;5.72;2.70;;;;;;;;;;4967888;28;20050;-60
2022/04/25 02:50:54;;;;;;;6.15;2.35;;;;;;;;;;4961977;28;20051;-61
2022/04/25 02:53:24;;;;;;;5.65;2.33;;;;;;;;;;4967817;28;20055;-61
2022/04/25 02:55:51;;;;;;;4.45;2.10;;;;;;;;;;4955424;28;20051;-61
2022/04/25 02:58:18;;;;;;;7.13;2.80;;;;;;;;;;4959484;28;20065;-62
2022/04/25 03:00:46;;;;;;;6.28;2.60;;;;;;;;;;4960734;28;20071;-60
2022/04/25 03:03:13;;;;;;;6.68;2.60;;;;;;;;;;4965675;28;20063;-59
2022/04/25 03:05:42;;;;;;;6.50;2.55;;;;;;;;;;4970844;28;20055;-60
2022/04/25 03:08:09;;;;;;;7.55;2.70;;;;;;;;;;4980730;28;20050;-60
2022/04/25 03:10:36;;;;;;;4.68;2.08;;;;;;;;;;4990445;28;20054;-60
2022/04/25 03:13:03;;;;;;;5.53;2.55;;;;;;;;;;4966046;28;20111;-59
2022/04/25 03:15:30;;;;;;;5.63;2.38;;;;;;;;;;4971733;28;20062;-60
2022/04/25 03:17:56;;;;;;;5.13;2.55;;;;;;;;;;4951131;28;20344;-59
2022/04/25 03:20:24;;;;;;;6.80;2.97;;;;;;;;;;4965782;28;20055;-59
2022/04/25 03:22:52;;;;;;;7.13;2.97;;;;;;;;;;4961380;28;20058;-61
2022/04/25 03:25:19;;;;;;;4.82;2.35;;;;;;;;;;4966861;28;20054;-59
2022/04/25 03:27:46;;;;;;;6.25;2.55;;;;;;;;;;4961690;28;20050;-59
2022/04/25 03:30:12;;;;;;;5.53;2.53;;;;;;;;;;4970094;28;20143;-59
2022/04/25 03:32:45;;;;;;;6.97;2.65;;;;;;;;;;4963170;28;20051;-61
2022/04/25 03:35:12;;;;;;;4.50;2.35;;;;;;;;;;4966734;28;20055;-59
2022/04/25 03:37:38;;;;;;;6.97;2.90;;;;;;;;;;4961086;28;20154;-62
2022/04/25 03:40:08;;;;;;;6.85;2.78;;;;;;;;;;4967651;28;20122;-61
2022/04/25 03:42:35;;;;;;;9.13;3.15;;;;;;;;;;4959519;28;20043;-61
2022/04/25 03:45:02;;;;;;;12.25;3.78;;;;;;;;;;4969791;28;20114;-60
2022/04/25 03:47:29;;;;;;;9.82;3.17;;;;;;;;;;4963726;28;20055;-60
2022/04/25 03:49:56;;;;;;;5.45;2.58;;;;;;;;;;4969125;28;20046;-59
2022/04/25 03:52:23;;;;;;;6.47;2.63;;;;;;;;;;4962685;28;20105;-63
2022/04/25 03:57:35;;;;;;;7.32;2.83;;;;;;;;;;4965357;28;20066;-59
2022/04/25 04:00:02;;;;;;;6.93;2.92;;;;;;;;;;4969217;28;20059;-59
2022/04/25 04:02:29;;;;;;;8.10;3.35;;;;;;;;;;4955109;28;20070;-59
2022/04/25 04:04:58;;;;;;;10.07;3.45;;;;;;;;;;4965319;28;20062;-59
2022/04/25 04:07:25;;;;;;;5.28;2.63;;;;;;;;;;4973457;28;20055;-60
2022/04/25 04:09:51;;;;;;;7.60;2.80;;;;;;;;;;4959199;28;20058;-61
2022/04/25 04:12:18;;;;;;;10.52;3.50;;;;;;;;;;4969562;28;20109;-61
2022/04/25 04:14:47;;;;;;;8.43;3.42;;;;;;;;;;4962853;28;20054;-61
2022/04/25 04:17:14;;;;;;;8.23;3.35;;;;;;;;;;4970507;28;20113;-60
2022/04/25 04:19:41;;;;;;;9.88;3.97;;;;;;;;;;4963665;28;20065;-59
2022/04/25 04:22:08;;;;;;;7.78;3.22;;;;;;;;;;4970165;28;20059;-60
2022/04/25 04:24:35;;;;;;;9.10;3.95;;;;;;;;;;4957071;28;20079;-59
2022/04/25 04:27:02;;;;;;;8.60;3.38;;;;;;;;;;4951015;28;20055;-59
2022/04/25 04:29:29;;;;;;;7.93;3.70;;;;;;;;;;4945580;28;20083;-61
2022/04/25 04:31:57;;;;;;;9.05;3.00;;;;;;;;;;4950067;28;20461;-62
2022/04/25 04:34:24;;;;;;;7.40;3.35;;;;;;;;;;4947947;28;20421;-59
2022/04/25 04:36:51;;;;;;;10.02;4.18;;;;;;;;;;4970240;28;20055;-61
2022/04/25 04:39:18;;;;;;;7.70;2.80;;;;;;;;;;4963751;28;20043;-60
2022/04/25 04:41:44;;;;;;;8.60;3.15;;;;;;;;;;4969208;28;20117;-61
2022/04/25 04:44:11;;;;;;;7.68;3.22;;;;;;;;;;4952229;28;20067;-59
2022/04/25 04:46:38;;;;;;;15.50;4.95;;;;;;;;;;4945496;28;20094;-59
2022/04/25 04:49:06;;;;;;;7.32;3.20;;;;;;;;;;4950504;28;20055;-60
2022/04/25 04:51:33;;;;;;;7.65;3.13;;;;;;;;;;4943683;28;20055;-61
2022/04/25 04:54:00;;;;;;;9.57;3.65;;;;;;;;;;4950210;28;20078;-58
2022/04/25 04:56:26;;;;;;;10.25;4.57;;;;;;;;;;4954081;28;20086;-60
2022/04/25 04:58:54;;;;;;;13.95;4.57;;;;;;;;;;4966959;28;20137;-59
2022/04/25 05:01:20;;;;;;;8.05;3.25;;;;;;;;;;4958129;28;20110;-59
2022/04/25 05:03:47;;;;;;;6.80;3.05;;;;;;;;;;4964292;28;20074;-59
2022/04/25 05:06:15;;;;;;;7.32;2.95;;;;;;;;;;4960974;28;20137;-59
2022/04/25 05:08:42;;;;;;;8.27;3.55;;;;;;;;;;4965930;28;20058;-59
2022/04/25 05:11:10;;;;;;;9.00;3.33;;;;;;;;;;4958809;28;20047;-60
2022/04/25 05:13:37;;;;;;;9.27;3.30;;;;;;;;;;4963458;28;20062;-60
2022/04/25 05:16:03;;;;;;;7.68;3.30;;;;;;;;;;4957967;28;20145;-59
2022/04/25 05:18:32;;;;;;;9.15;3.65;;;;;;;;;;4965771;28;20158;-59
2022/04/25 05:20:59;;;;;;;7.15;3.25;;;;;;;;;;4959162;28;20138;-59
2022/04/25 05:23:28;;;;;;;7.15;3.28;;;;;;;;;;4964454;28;20105;-59
2022/04/25 05:25:54;;;;;;;;;;;;;;;;;;4974830;28;20062;-59
2022/04/25 05:28:21;;;;;;;8.60;3.92;;;;;;;;;;4959882;28;19926;-59
2022/04/25 05:30:48;;;;;;;12.80;4.60;;;;;;;;;;4966699;28;20050;-58
2022/04/25 05:33:17;;;;;;;8.93;3.42;;;;;;;;;;4960958;28;20113;-61
2022/04/25 05:35:44;;;;;;;8.55;3.20;;;;;;;;;;4966412;28;20055;-60
2022/04/25 05:38:11;;;;;;;8.20;3.67;;;;;;;;;;4958902;28;20090;-60
2022/04/25 05:40:40;;;;;;;10.80;3.75;;;;;;;;;;4968440;28;20050;-61
2022/04/25 05:43:10;;;;;;;8.07;3.78;;;;;;;;;;4963978;28;20051;-60
2022/04/25 05:45:37;;;;;;;9.75;4.32;;;;;;;;;;4971681;28;20066;-62
2022/04/25 05:51:58;;;;;;;7.88;3.55;;;;;;;;;;4964253;28;20142;-63
2022/04/25 05:53:37;;;;;;;11.45;4.88;;;;;;;;;;4965500;28;20298;-60
2022/04/25 05:56:06;;;;;;;10.18;4.68;;;;;;;;;;4971424;28;20055;-59
2022/04/25 05:58:33;;;;;;;9.27;4.05;;;;;;;;;;4953623;28;20134;-60
2022/04/25 06:01:00;;;;;;;12.77;5.20;;;;;;;;;;4951947;28;20062;-59
2022/04/25 06:03:39;;;;;;;8.60;4.20;;;;;;;;;;4954095;28;20121;-59
2022/04/25 06:06:06;;;;;;;9.20;4.05;;;;;;;;;;4967590;28;20055;-60
2022/04/25 06:08:32;;;;;;;9.55;3.90;;;;;;;;;;4959386;28;20051;-60
2022/04/25 06:10:59;;;;;;;8.52;4.03;;;;;;;;;;4963140;28;20069;-58
2022/04/25 06:13:30;;;;;;;9.23;5.30;;;;;;;;;;4956775;28;20133;-62
2022/04/25 06:15:56;;;;;;;6.13;3.05;;;;;;;;;;4956380;28;20074;-62
2022/04/25 06:18:23;;;;;;;13.70;4.85;;;;;;;;;;4958347;28;20059;-59
2022/04/25 06:20:50;;;;;;;12.18;4.75;;;;;;;;;;4964597;28;20047;-63
2022/04/25 06:23:19;;;;;;;8.73;3.90;;;;;;;;;;4960499;28;20057;-59
2022/04/25 06:25:45;;;;;;;8.00;3.97;;;;;;;;;;4964154;28;20051;-59
2022/04/25 06:28:12;;;;;;;11.80;4.80;;;;;;;;;;4966243;28;20067;-59
2022/04/25 06:30:40;;;;;;;12.23;4.65;;;;;;;;;;4960703;28;20109;-61
2022/04/25 06:33:08;;;;;;;8.85;4.05;;;;;;;;;;4964094;28;20054;-62
2022/04/25 06:35:35;;;;;;;9.85;4.82;;;;;;;;;;4956405;28;20042;-61
2022/04/25 06:38:02;;;;;;;16.08;6.45;;;;;;;;;;4967861;28;20054;-62
2022/04/25 06:40:28;;;;;;;10.88;4.65;;;;;;;;;;4962409;28;20101;-64
2022/04/25 06:42:59;;;;;;;13.27;5.50;;;;;;;;;;4966347;28;20047;-63
2022/04/25 06:45:25;;;;;;;20.02;7.70;;;;;;;;;;4962127;28;20126;-59
2022/04/25 06:47:54;;;;;;;11.15;5.07;;;;;;;;;;4968627;28;20055;-60
2022/04/25 06:50:20;;;;;;;9.18;4.53;;;;;;;;;;4967514;28;20047;-59
2022/04/25 06:52:47;;;;;;;9.40;4.60;;;;;;;;;;4966754;28;20409;-60
2022/04/25 06:55:14;;;;;;;16.33;6.63;;;;;;;;;;4959950;28;20120;-61
2022/04/25 06:57:42;;;;;;;16.00;6.70;;;;;;;;;;4966734;28;20051;-60
2022/04/25 07:00:11;;;;;;;15.47;6.97;;;;;;;;;;4958777;28;20050;-59
2022/04/25 07:02:37;;;;;;;11.10;5.10;;;;;;;;;;4965737;28;20058;-58
2022/04/25 07:05:06;;;;;;;9.27;4.10;;;;;;;;;;4962048;28;20109;-61
2022/04/25 07:07:33;;;;;;;11.90;5.38;;;;;;;;;;4968918;28;20051;-59
2022/04/25 07:09:59;;;;;;;11.02;4.20;;;;;;;;;;4964060;28;20062;-60
2022/04/25 07:12:33;;;;;;;13.30;5.85;;;;;;;;;;4958033;28;20126;-58
2022/04/25 07:14:59;;;;;;;14.27;6.75;;;;;;;;;;4966024;28;20085;-59
2022/04/25 07:17:27;;;;;;;15.25;6.32;;;;;;;;;;4960786;28;20078;-61
2022/04/25 07:19:53;;;;;;;12.55;5.25;;;;;;;;;;4963816;28;20074;-59
2022/04/25 07:30:35;;;;;;;12.88;5.10;;;;;;;;;;4967126;28;20038;-62
2022/04/25 07:33:09;;;;;;;10.05;4.68;;;;;;;;;;4958195;28;20128;-60
2022/04/25 07:35:36;;;;;;;11.38;5.90;;;;;;;;;;4965023;28;20061;-59
2022/04/25 07:38:05;;;;;;;9.77;4.85;;;;;;;;;;4961555;28;20054;-60
2022/04/25 07:40:31;;;;;;;10.10;4.05;;;;;;;;;;4964323;28;20053;-59
2022/04/25 07:42:59;;;;;;;13.60;5.40;;;;;;;;;;4962388;28;20469;-59
2022/04/25 07:45:25;;;;;;;12.10;5.37;;;;;;;;;;4964192;28;20082;-61
2022/04/25 07:47:52;;;;;;;10.68;4.30;;;;;;;;;;4964098;28;20059;-59
2022/04/25 07:50:23;;;;;;;10.30;5.35;;;;;;;;;;4967440;28;20054;-59
2022/04/25 07:52:53;;;;;;;12.55;4.75;;;;;;;;;;4959226;28;20058;-59
2022/04/25 07:55:21;;;;;;;10.00;4.32;;;;;;;;;;4981351;28;20070;-61
2022/04/25 07:57:48;;;;;;;10.35;4.53;;;;;;;;;;4961858;28;20145;-59
2022/04/25 08:00:15;;;;;;;11.75;4.97;;;;;;;;;;4968658;28;20047;-59
2022/04/25 08:02:41;;;;;;;10.40;4.07;;;;;;;;;;4958875;28;20109;-59
2022/04/25 08:05:08;;;;;;;9.05;4.00;;;;;;;;;;4959948;28;20065;-59
2022/04/25 08:07:36;;;;;;;9.25;4.25;;;;;;;;;;4961411;28;20070;-59
2022/04/25 08:10:03;;;;;;;10.35;4.38;;;;;;;;;;4963337;28;20065;-59
2022/04/25 08:18:01;;;;;;;10.75;5.03;;;;;;;;;;4961567;28;20061;-61
2022/04/25 08:20:29;;;;;;;9.52;4.63;;;;;;;;;;4967116;28;20138;-59
2022/04/25 08:22:58;;;;;;;9.45;3.97;;;;;;;;;;4964627;28;20046;-60
2022/04/25 08:25:25;;;;;;;14.98;6.35;;;;;;;;;;4965010;28;20059;-59
2022/04/25 08:27:53;;;;;;;10.68;4.53;;;;;;;;;;4966582;28;20109;-59
2022/04/25 08:30:21;;;;;;;12.00;5.68;;;;;;;;;;4958545;28;20153;-59
2022/04/25 08:32:47;;;;;;;9.73;4.15;;;;;;;;;;4961039;28;20074;-59
2022/04/25 08:35:14;;;;;;;12.05;4.43;;;;;;;;;;4959980;28;20047;-59
2022/04/25 08:37:41;;;;;;;14.23;5.65;;;;;;;;;;4966419;28;20067;-59
2022/04/25 08:40:08;;;;;;;13.95;6.38;;;;;;;;;;4961043;28;20085;-59
2022/04/25 08:42:35;;;;;;;14.13;6.93;;;;;;;;;;4966003;28;20051;-59
2022/04/25 08:45:05;;;;;;;13.68;5.93;;;;;;;;;;4959355;28;20055;-59
2022/04/25 08:47:35;;;;;;;14.20;6.38;;;;;;;;;;4964587;28;20050;-59
2022/04/25 08:50:01;;;;;;;11.50;4.47;;;;;;;;;;4955807;28;20129;-59
2022/04/25 08:52:29;;;;;;;18.60;6.78;;;;;;;;;;4965336;28;20125;-59
2022/04/25 08:54:57;;;;;;;11.20;4.97;;;;;;;;;;4955841;28;20114;-59
2022/04/25 08:57:24;;;;;;;12.57;5.60;;;;;;;;;;4960436;28;20062;-60
2022/04/25 08:59:51;;;;;;;13.77;5.97;;;;;;;;;;4959058;28;20046;-59
2022/04/25 09:02:19;;;;;;;16.48;8.48;;;;;;;;;;4960507;28;20058;-59
2022/04/25 09:04:46;;;;;;;22.67;8.30;;;;;;;;;;4959213;28;20059;-59
2022/04/25 09:07:13;;;;;;;10.77;5.00;;;;;;;;;;4966005;28;20059;-59
2022/04/25 09:09:40;;;;;;;12.52;5.38;;;;;;;;;;4969104;28;20058;-60
2022/04/25 09:12:10;;;;;;;12.75;4.75;;;;;;;;;;4962544;28;20058;-59
2022/04/25 09:14:37;;;;;;;14.15;5.35;;;;;;;;;;4965941;28;20054;-59
2022/04/25 09:17:03;;;;;;;18.13;7.95;;;;;;;;;;4960265;28;20058;-59
2022/04/25 09:19:32;;;;;;;11.13;5.20;;;;;;;;;;4969706;28;20051;-60
2022/04/25 09:21:58;;;;;;;16.65;6.95;;;;;;;;;;4957514;28;20122;-59
2022/04/25 09:24:28;;;;;;;20.48;8.88;;;;;;;;;;4967666;28;20496;-59
2022/04/25 09:26:55;;;;;;;20.52;9.45;;;;;;;;;;4961048;28;20050;-59
2022/04/25 09:29:25;;;;;;;11.60;5.20;;;;;;;;;;4957592;28;20082;-59
2022/04/25 09:31:52;;;;;;;16.92;6.78;;;;;;;;;;4958581;28;20042;-60
2022/04/25 09:37:17;;;;;;;16.10;7.50;;;;;;;;;;4961874;28;20197;-59
2022/04/25 09:39:44;;;;;;;12.38;4.53;;;;;;;;;;4964366;28;20141;-60
2022/04/25 09:42:11;;;;;;;22.40;9.07;;;;;;;;;;4959144;28;20118;-60
2022/04/25 09:44:52;;;;;;;12.93;5.97;;;;;;;;;;4964596;28;20059;-60
2022/04/25 09:47:25;;;;;;;15.35;6.25;;;;;;;;;;4959307;28;20050;-60
2022/04/25 09:49:59;;;;;;;18.70;7.40;;;;;;;;;;4964766;28;20089;-61
2022/04/25 09:52:53;;;;;;;26.70;9.75;;;;;;;;;;4956563;28;20158;-61
2022/04/25 09:55:23;;;;;;;18.30;8.05;;;;;;;;;;4961054;28;20105;-61
2022/04/25 09:57:50;;;;;;;20.90;8.95;;;;;;;;;;4960500;28;20069;-59
2022/04/25 10:00:30;;;;;;;18.88;8.70;;;;;;;;;;4963087;28;20054;-61
2022/04/25 10:02:59;;;;;;;20.88;8.07;;;;;;;;;;4957487;28;20063;-59
2022/04/25 10:05:37;;;;;;;19.33;8.33;;;;;;;;;;4959142;28;20044;-59
2022/04/25 10:08:05;;;;;;;14.50;6.88;;;;;;;;;;4954380;28;20389;-59
2022/04/25 10:10:31;;;;;;;13.95;6.15;;;;;;;;;;4964080;28;20051;-59
2022/04/25 10:12:59;;;;;;;16.40;7.97;;;;;;;;;;4957629;28;20134;-58
2022/04/25 10:15:26;;;;;;;16.70;7.40;;;;;;;;;;4964926;28;20106;-58
2022/04/25 10:17:53;;;;;;;24.50;9.50;;;;;;;;;;4956783;28;20074;-59
2022/04/25 10:20:19;;;;;;;19.88;8.77;;;;;;;;;;4964394;28;20055;-58
2022/04/25 10:22:49;;;;;;;16.67;6.22;;;;;;;;;;4957071;28;20051;-59
2022/04/25 10:25:15;;;;;;;21.17;7.80;;;;;;;;;;4964740;28;20051;-59
2022/04/25 10:27:43;;;;;;;14.63;6.53;;;;;;;;;;4963195;28;20061;-59
2022/04/25 10:30:11;;;;;;;19.08;7.40;;;;;;;;;;4962208;28;20050;-60
2022/04/25 10:32:40;;;;;;;24.02;8.05;;;;;;;;;;4964817;28;20050;-61
2022/04/25 10:35:12;;;;;;;17.90;7.82;;;;;;;;;;4956292;28;20057;-61
2022/04/25 10:37:39;;;;;;;21.58;7.82;;;;;;;;;;4963270;28;20129;-59
2022/04/25 10:40:08;;;;;;;14.55;6.43;;;;;;;;;;4956394;28;20516;-60
2022/04/25 10:45:53;;;;;;;14.80;6.55;;;;;;;;;;4957511;28;20055;-60
2022/04/25 10:48:20;;;;;;;17.50;6.55;;;;;;;;;;4959878;28;20121;-59
2022/04/25 10:51:05;;;;;;;12.32;6.00;;;;;;;;;;4960585;28;20057;-59
2022/04/25 10:53:48;;;;;;;14.07;6.30;;;;;;;;;;4954281;28;20060;-59
2022/04/25 10:56:16;;;;;;;14.73;6.82;;;;;;;;;;4964847;28;20062;-59
2022/04/25 10:58:43;;;;;;;14.55;5.72;;;;;;;;;;4965520;28;20090;-61
2022/04/25 11:01:19;;;;;;;20.50;7.53;;;;;;;;;;4956312;28;20067;-60
2022/04/25 11:04:03;;;;;;;16.55;7.30;;;;;;;;;;4956364;28;20137;-59
2022/04/25 11:06:30;;;;;;;16.23;7.18;;;;;;;;;;4960300;28;20058;-62
2022/04/25 11:08:57;;;;;;;8.82;4.88;;;;;;;;;;4968107;28;20050;-59
2022/04/25 11:11:25;;;;;;;12.70;5.40;;;;;;;;;;4956310;28;20109;-59
2022/04/25 11:14:12;;;;;;;13.23;6.25;;;;;;;;;;4964512;28;20070;-61
2022/04/25 11:16:39;;;;;;;10.57;5.43;;;;;;;;;;4960448;28;20055;-59
2022/04/25 11:19:07;;;;;;;13.77;6.55;;;;;;;;;;4964693;28;20078;-59
2022/04/25 11:21:34;;;;;;;14.43;6.25;;;;;;;;;;4958528;28;20059;-59
2022/04/25 11:24:02;;;;;;;10.98;4.85;;;;;;;;;;4964120;28;20051;-61
2022/04/25 11:26:47;;;;;;;19.83;6.35;;;;;;;;;;4961852;28;20054;-60
2022/04/25 11:29:15;;;;;;;15.18;5.82;;;;;;;;;;4965944;28;20054;-59
2022/04/25 11:31:42;;;;;;;13.43;6.50;;;;;;;;;;4960422;28;20051;-60
2022/04/25 11:34:11;;;;;;;11.32;5.45;;;;;;;;;;4964690;28;20043;-60
2022/04/25 11:36:38;;;;;;;16.25;6.53;;;;;;;;;;4963266;28;20113;-60
2022/04/25 11:41:49;;;;;;;17.05;6.35;;;;;;;;;;4961822;28;20115;-59
2022/04/25 11:44:18;;;;;;;15.73;5.85;;;;;;;;;;4968495;28;20083;-61
2022/04/25 11:46:44;;;;;;;16.33;7.13;;;;;;;;;;4961384;28;20132;-61
2022/04/25 11:49:11;;;;;;;11.82;5.85;;;;;;;;;;4967914;28;20050;-59
2022/04/25 11:51:39;;;;;;;17.35;7.40;;;;;;;;;;4961806;28;20058;-61
2022/04/25 11:54:07;;;;;;;12.68;5.95;;;;;;;;;;4966234;28;20062;-62
2022/04/25 11:56:34;;;;;;;14.32;6.72;;;;;;;;;;4964759;28;20043;-59
2022/04/25 11:59:06;;;;;;;14.93;7.20;;;;;;;;;;4967729;28;20050;-62
2022/04/25 12:01:35;;;;;;;16.42;7.65;;;;;;;;;;4968532;28;20050;-60
2022/04/25 12:04:16;;;;;;;14.73;6.85;;;;;;;;;;4964224;28;20055;-60
2022/04/25 12:06:50;;;;;;;14.48;5.63;;;;;;;;;;4983346;28;20061;-60
2022/04/25 12:17:33;;;;;;;;;;;;;;;;;;4959864;28;20083;-62
2022/04/25 12:20:04;;;;;;;15.93;5.88;;;;;;;;;;4962677;28;19958;-60
2022/04/25 12:22:37;;;;;;;17.38;7.07;;;;;;;;;;4962138;28;20089;-59
2022/04/25 12:25:17;;;;;;;13.02;4.88;;;;;;;;;;4961345;28;20050;-60
2022/04/25 12:28:04;;;;;;;18.25;6.75;;;;;;;;;;4958361;28;20059;-59
2022/04/25 12:30:32;;;;;;;18.33;7.32;;;;;;;;;;4964362;28;20089;-59
2022/04/25 12:33:07;;;;;;;14.73;6.35;;;;;;;;;;4962338;28;20082;-61
2022/04/25 12:35:36;;;;;;;14.88;6.22;;;;;;;;;;4963206;28;20055;-59
2022/04/25 12:38:02;;;;;;;11.38;5.32;;;;;;;;;;4960814;28;20055;-59
2022/04/25 12:40:29;;;;;;;14.50;6.13;;;;;;;;;;4967318;28;20051;-59
2022/04/25 12:43:00;;;;;;;12.63;6.07;;;;;;;;;;4966102;28;20059;-59
2022/04/25 12:45:27;;;;;;;15.75;7.65;;;;;;;;;;4963122;28;20046;-59
2022/04/25 12:47:57;;;;;;;17.83;6.60;;;;;;;;;;4962811;28;20058;-60
2022/04/25 12:50:45;;;;;;;11.40;4.75;;;;;;;;;;4959488;28;20122;-60
2022/04/25 12:53:37;;;;;;;14.85;5.20;;;;;;;;;;4967131;28;20062;-59
2022/04/25 12:56:04;;;;;;;14.15;4.97;;;;;;;;;;4966165;28;20118;-59
2022/04/25 12:58:33;;;;;;;12.60;5.07;;;;;;;;;;4966485;28;20089;-61
2022/04/25 13:01:00;;;;;;;11.93;5.18;;;;;;;;;;4960036;28;20057;-60
2022/04/25 13:03:28;;;;;;;16.08;6.45;;;;;;;;;;4962334;28;20051;-59
2022/04/25 13:05:56;;;;;;;18.23;7.55;;;;;;;;;;4960771;28;20066;-61
2022/04/25 13:08:22;;;;;;;19.70;7.25;;;;;;;;;;4967064;28;20054;-60
2022/04/25 13:10:49;;;;;;;16.88;7.32;;;;;;;;;;4957586;28;20047;-62
2022/04/25 13:13:18;;;;;;;14.60;5.55;;;;;;;;;;4966147;28;20089;-59
2022/04/25 13:15:47;;;;;;;14.38;6.93;;;;;;;;;;4962583;28;20055;-59
2022/04/25 13:18:14;;;;;;;14.35;6.85;;;;;;;;;;4966273;28;20066;-60
2022/04/25 13:20:40;;;;;;;14.27;6.05;;;;;;;;;;4958237;28;20054;-60
2022/04/25 13:23:21;;;;;;;16.55;6.57;;;;;;;;;;4964338;28;20090;-60
2022/04/25 13:25:48;;;;;;;12.07;5.90;;;;;;;;;;4960620;28;20109;-59
2022/04/25 13:28:14;;;;;;;13.95;6.35;;;;;;;;;;4964304;28;20058;-59
2022/04/25 13:30:41;;;;;;;17.15;6.10;;;;;;;;;;4955310;28;20051;-59
2022/04/25 13:33:08;;;;;;;16.42;6.05;;;;;;;;;;4962214;28;20074;-60
2022/04/25 13:35:35;;;;;;;10.80;5.50;;;;;;;;;;4960577;28;20059;-60
2022/04/25 13:38:02;;;;;;;11.98;5.65;;;;;;;;;;4965286;28;20093;-59
2022/04/25 13:40:30;;;;;;;11.15;5.53;;;;;;;;;;4960138;28;20051;-59
2022/04/25 13:43:12;;;;;;;12.18;5.20;;;;;;;;;;4963871;28;20082;-59
2022/04/25 13:45:39;;;;;;;14.20;7.13;;;;;;;;;;4955624;28;20054;-59
2022/04/25 13:48:05;;;;;;;12.50;5.88;;;;;;;;;;4963204;28;20051;-60
2022/04/25 13:50:32;;;;;;;14.90;6.72;;;;;;;;;;4961222;28;20053;-60
2022/04/25 13:52:59;;;;;;;15.77;5.10;;;;;;;;;;4959084;28;20055;-60
2022/04/25 13:55:25;;;;;;;15.82;6.15;;;;;;;;;;4963515;28;20078;-60
2022/04/25 13:57:53;;;;;;;13.55;5.55;;;;;;;;;;4959130;28;20352;-59
2022/04/25 14:00:20;;;;;;;15.57;6.30;;;;;;;;;;4962563;28;20137;-60
2022/04/25 14:05:31;;;;;;;14.32;5.72;;;;;;;;;;4962355;28;20062;-60
2022/04/25 14:07:58;;;;;;;13.45;5.18;;;;;;;;;;4961461;28;20159;-59
2022/04/25 14:10:24;;;;;;;15.80;6.07;;;;;;;;;;4965777;28;20130;-60
2022/04/25 14:12:55;;;;;;;15.02;5.45;;;;;;;;;;4958992;28;20114;-59
2022/04/25 14:15:21;;;;;;;13.57;6.07;;;;;;;;;;4962942;28;20054;-59
2022/04/25 14:17:48;;;;;;;17.48;6.68;;;;;;;;;;4956997;28;20050;-59
2022/04/25 14:20:15;;;;;;;12.98;5.88;;;;;;;;;;4961276;28;20051;-60
2022/04/25 14:22:55;;;;;;;18.00;7.18;;;;;;;;;;4960284;28;20074;-59
2022/04/25 14:25:23;;;;;;;12.05;5.22;;;;;;;;;;4962329;28;20059;-59
2022/04/25 14:27:49;;;;;;;14.20;6.20;;;;;;;;;;4974615;28;20054;-60
2022/04/25 14:30:18;;;;;;;14.52;5.57;;;;;;;;;;4960988;28;20290;-61
2022/04/25 14:32:50;;;;;;;15.23;5.53;;;;;;;;;;4959591;28;20097;-59
2022/04/25 14:35:17;;;;;;;14.65;6.28;;;;;;;;;;4958574;28;20058;-59
2022/04/25 14:37:43;;;;;;;11.93;5.40;;;;;;;;;;4958095;28;20046;-59
2022/04/25 14:40:11;;;;;;;14.43;6.35;;;;;;;;;;4965468;28;20057;-61
2022/04/25 14:42:47;;;;;;;15.40;6.93;;;;;;;;;;4964434;28;20066;-60
2022/04/25 14:45:14;;;;;;;14.48;5.82;;;;;;;;;;4968831;28;20038;-61
2022/04/25 14:47:46;;;;;;;14.10;6.10;;;;;;;;;;4964625;28;20062;-60
2022/04/25 14:55:47;;;;;;;13.48;5.85;;;;;;;;;;4967272;28;20051;-60
2022/04/25 14:58:15;;;;;;;15.52;7.07;;;;;;;;;;4960075;28;20059;-60
2022/04/25 15:00:42;;;;;;;12.65;5.22;;;;;;;;;;4967414;28;20047;-59
2022/04/25 15:03:12;;;;;;;13.90;7.13;;;;;;;;;;4966129;28;20077;-59
2022/04/25 15:05:39;;;;;;;14.25;6.60;;;;;;;;;;4960494;28;20053;-59
2022/04/25 15:08:08;;;;;;;13.88;6.07;;;;;;;;;;4967344;28;20133;-59
2022/04/25 15:10:36;;;;;;;15.50;6.05;;;;;;;;;;4960811;28;20063;-59
2022/04/25 15:13:04;;;;;;;13.88;6.10;;;;;;;;;;4967581;28;20078;-59
2022/04/25 15:15:30;;;;;;;13.95;5.90;;;;;;;;;;4958685;28;20082;-59
2022/04/25 15:17:57;;;;;;;13.85;6.93;;;;;;;;;;4967897;28;20063;-59
2022/04/25 15:20:25;;;;;;;18.27;8.18;;;;;;;;;;4960490;28;20062;-59
2022/04/25 15:22:55;;;;;;;15.55;5.82;;;;;;;;;;4963388;28;20113;-60
2022/04/25 15:25:21;;;;;;;15.55;6.57;;;;;;;;;;4961576;28;20056;-59
2022/04/25 15:27:48;;;;;;;24.10;8.57;;;;;;;;;;4964040;28;20082;-61
2022/04/25 15:30:15;;;;;;;14.02;5.97;;;;;;;;;;4959930;28;20047;-59